Time;durP1;ratioP1;P1;durP2;ratioP2;P2;SDS_P1;SDS_P2;PMS_P1;PMS_P2;Temp;Humidity;BMP_temperature;BMP_pressure;BME280_temperature;BME280_humidity;BME280_pressure;Samples;Min_cycle;Max_cycle;Signal;HPM_P1;HPM_P2
2023/12/29 00:02:07;;;;;;;126.07;42.05;;;;;;;;;;6247314;23;20410;-95
2023/12/29 00:04:33;;;;;;;174.88;47.80;;;;;;;;;;6246889;23;20008;-95
2023/12/29 00:07:06;;;;;;;129.85;44.03;;;;;;;;;;6258721;22;20000;-95
2023/12/29 00:09:40;;;;;;;138.43;45.83;;;;;;;;;;6251902;22;20004;-96
2023/12/29 00:12:09;;;;;;;166.90;45.47;;;;;;;;;;6253208;22;20008;-95
2023/12/29 00:14:48;;;;;;;394.45;62.63;;;;;;;;;;6251557;22;20430;-95
2023/12/29 00:17:21;;;;;;;129.02;41.10;;;;;;;;;;6253203;22;20008;-95
2023/12/29 00:19:53;;;;;;;221.00;50.10;;;;;;;;;;6254269;22;20012;-96
2023/12/29 00:22:23;;;;;;;165.10;46.13;;;;;;;;;;6252806;22;20433;-96
2023/12/29 00:24:56;;;;;;;115.32;39.33;;;;;;;;;;6252177;22;20061;-95
2023/12/29 00:27:25;;;;;;;201.52;48.92;;;;;;;;;;6252023;22;20432;-96
2023/12/29 00:29:51;;;;;;;148.52;43.92;;;;;;;;;;6253219;22;20003;-96
2023/12/29 00:32:17;;;;;;;247.65;50.47;;;;;;;;;;6254548;22;20003;-96
2023/12/29 00:34:44;;;;;;;287.55;52.55;;;;;;;;;;6255229;22;20436;-95
2023/12/29 00:37:11;;;;;;;191.25;46.78;;;;;;;;;;6253683;22;20037;-95
2023/12/29 00:39:40;;;;;;;149.18;43.00;;;;;;;;;;6248802;23;20020;-96
2023/12/29 00:42:07;;;;;;;150.55;41.22;;;;;;;;;;6224322;23;20008;-95
2023/12/29 00:44:33;;;;;;;108.85;37.85;;;;;;;;;;6223663;23;20060;-95
2023/12/29 00:47:00;;;;;;;117.55;38.30;;;;;;;;;;6223663;23;20008;-95
2023/12/29 00:49:27;;;;;;;207.13;47.95;;;;;;;;;;6224638;23;20004;-95
2023/12/29 00:51:56;;;;;;;462.23;66.57;;;;;;;;;;6222897;23;20015;-95
2023/12/29 00:54:22;;;;;;;136.25;40.63;;;;;;;;;;6223413;23;20034;-96
2023/12/29 00:56:49;;;;;;;215.77;52.05;;;;;;;;;;6225304;23;20429;-95
2023/12/29 00:59:16;;;;;;;444.65;66.65;;;;;;;;;;6225330;23;20058;-95
2023/12/29 01:01:43;;;;;;;83.50;35.22;;;;;;;;;;6224653;23;20012;-95
2023/12/29 01:04:11;;;;;;;125.72;38.67;;;;;;;;;;6225313;23;20010;-95
2023/12/29 01:06:37;;;;;;;262.45;49.08;;;;;;;;;;6225195;23;20011;-95
2023/12/29 01:09:03;;;;;;;115.57;39.45;;;;;;;;;;6225643;23;20001;-95
2023/12/29 01:11:31;;;;;;;92.28;32.33;;;;;;;;;;6225961;23;20000;-94
2023/12/29 01:13:57;;;;;;;89.45;35.97;;;;;;;;;;6225679;23;20012;-95
2023/12/29 01:16:24;;;;;;;212.52;47.65;;;;;;;;;;6259235;22;20007;-95
2023/12/29 01:18:50;;;;;;;203.20;46.78;;;;;;;;;;6249800;22;19991;-95
2023/12/29 01:21:17;;;;;;;73.65;31.60;;;;;;;;;;6239703;23;20016;-95
2023/12/29 01:23:43;;;;;;;99.57;37.30;;;;;;;;;;6224466;23;20008;-95
2023/12/29 01:26:11;;;;;;;145.32;42.63;;;;;;;;;;6224815;23;20008;-95
2023/12/29 01:28:37;;;;;;;265.25;52.60;;;;;;;;;;6224449;23;20004;-95
2023/12/29 01:31:05;;;;;;;179.18;46.83;;;;;;;;;;6224322;23;20477;-95
2023/12/29 01:33:32;;;;;;;151.75;46.40;;;;;;;;;;6225310;23;20058;-95
2023/12/29 01:35:58;;;;;;;300.45;55.35;;;;;;;;;;6223586;23;20000;-95
2023/12/29 01:38:24;;;;;;;217.73;51.92;;;;;;;;;;6223531;23;20004;-95
2023/12/29 01:40:51;;;;;;;155.80;47.70;;;;;;;;;;6245094;22;20015;-95
2023/12/29 01:43:17;;;;;;;114.30;40.42;;;;;;;;;;6279724;22;20031;-95
2023/12/29 01:45:47;;;;;;;100.65;38.38;;;;;;;;;;6280325;22;20058;-95
2023/12/29 01:48:13;;;;;;;81.70;33.53;;;;;;;;;;6279438;22;20030;-95
2023/12/29 01:50:40;;;;;;;180.65;48.47;;;;;;;;;;6278996;22;20436;-95
2023/12/29 01:53:06;;;;;;;156.25;46.60;;;;;;;;;;6278738;22;20035;-96
2023/12/29 01:55:33;;;;;;;180.48;52.70;;;;;;;;;;6280087;22;20004;-95
2023/12/29 01:57:59;;;;;;;152.23;48.35;;;;;;;;;;6279938;22;20003;-95
2023/12/29 02:00:26;;;;;;;202.57;53.28;;;;;;;;;;6280483;22;20019;-95
2023/12/29 02:02:52;;;;;;;209.10;52.33;;;;;;;;;;6279174;22;20086;-95
2023/12/29 02:05:21;;;;;;;88.70;34.80;;;;;;;;;;6279000;22;20065;-94
2023/12/29 02:07:47;;;;;;;99.13;38.88;;;;;;;;;;6279397;22;20341;-95
2023/12/29 02:10:15;;;;;;;114.28;40.72;;;;;;;;;;6279139;22;20021;-94
2023/12/29 02:12:42;;;;;;;72.53;34.80;;;;;;;;;;6278850;22;20031;-96
2023/12/29 02:15:08;;;;;;;152.00;47.10;;;;;;;;;;6278153;22;20000;-95
2023/12/29 02:17:42;;;;;;;127.57;43.45;;;;;;;;;;6277555;22;20020;-95
2023/12/29 02:20:10;;;;;;;152.98;46.88;;;;;;;;;;6277688;22;20387;-94
2023/12/29 02:22:36;;;;;;;119.15;44.75;;;;;;;;;;6277515;22;20003;-95
2023/12/29 02:25:03;;;;;;;155.23;46.78;;;;;;;;;;6277759;22;20011;-95
2023/12/29 02:27:50;;;;;;;62.38;31.17;;;;;;;;;;6277362;22;20333;-95
2023/12/29 02:30:23;;;;;;;72.55;34.05;;;;;;;;;;6277395;22;20034;-95
2023/12/29 02:32:49;;;;;;;108.85;41.30;;;;;;;;;;6277637;22;20000;-95
2023/12/29 02:35:19;;;;;;;117.65;42.38;;;;;;;;;;6277744;22;20008;-96
2023/12/29 02:37:45;;;;;;;100.00;39.42;;;;;;;;;;6252203;22;20325;-96
2023/12/29 02:40:12;;;;;;;54.53;28.98;;;;;;;;;;6277039;22;20433;-95
2023/12/29 02:42:38;;;;;;;129.25;41.25;;;;;;;;;;6251617;22;20448;-95
2023/12/29 02:45:04;;;;;;;91.30;38.22;;;;;;;;;;6251674;22;20007;-95
2023/12/29 02:47:31;;;;;;;64.30;32.15;;;;;;;;;;6252689;22;20008;-95
2023/12/29 02:49:57;;;;;;;52.63;29.70;;;;;;;;;;6252345;22;20038;-95
2023/12/29 02:52:23;;;;;;;108.82;38.65;;;;;;;;;;6252145;22;20004;-94
2023/12/29 02:54:49;;;;;;;106.72;38.50;;;;;;;;;;6253308;22;20038;-94
2023/12/29 02:57:16;;;;;;;43.88;25.05;;;;;;;;;;6279266;22;20011;-92
2023/12/29 02:59:42;;;;;;;77.60;34.85;;;;;;;;;;6273968;22;20023;-94
2023/12/29 03:02:08;;;;;;;46.88;26.55;;;;;;;;;;6251813;22;20418;-94
2023/12/29 03:04:34;;;;;;;81.35;35.15;;;;;;;;;;6251029;22;20004;-95
2023/12/29 03:07:01;;;;;;;77.28;33.65;;;;;;;;;;6251064;22;19999;-94
2023/12/29 03:09:27;;;;;;;53.40;29.25;;;;;;;;;;6250874;22;20004;-95
2023/12/29 03:11:53;;;;;;;106.15;37.55;;;;;;;;;;6251124;22;20314;-94
2023/12/29 03:14:19;;;;;;;85.88;36.10;;;;;;;;;;6251058;22;20003;-94
2023/12/29 03:16:45;;;;;;;119.18;41.35;;;;;;;;;;6251405;22;20000;-94
2023/12/29 03:19:12;;;;;;;113.25;39.95;;;;;;;;;;6251627;22;20014;-94
2023/12/29 03:21:38;;;;;;;55.58;29.45;;;;;;;;;;6251078;22;20004;-95
2023/12/29 03:24:04;;;;;;;101.43;39.67;;;;;;;;;;6251265;22;20003;-94
2023/12/29 03:26:30;;;;;;;92.00;36.55;;;;;;;;;;6251119;22;20010;-95
2023/12/29 03:28:56;;;;;;;112.72;41.65;;;;;;;;;;6251612;22;20031;-94
2023/12/29 03:31:23;;;;;;;129.95;44.70;;;;;;;;;;6251662;22;20015;-95
2023/12/29 03:33:49;;;;;;;73.55;34.33;;;;;;;;;;6251753;22;20493;-94
2023/12/29 03:36:15;;;;;;;64.65;32.67;;;;;;;;;;6252184;22;20091;-94
2023/12/29 03:38:41;;;;;;;79.32;37.47;;;;;;;;;;6251117;22;20004;-94
2023/12/29 03:41:08;;;;;;;86.80;40.13;;;;;;;;;;6246268;23;20020;-94
2023/12/29 03:43:34;;;;;;;173.23;50.47;;;;;;;;;;6220850;23;20000;-94
2023/12/29 03:46:00;;;;;;;155.48;48.38;;;;;;;;;;6220643;23;20003;-93
2023/12/29 03:48:32;;;;;;;243.13;56.70;;;;;;;;;;6220827;23;20004;-93
2023/12/29 03:51:01;;;;;;;106.72;41.63;;;;;;;;;;6220825;23;20004;-94
2023/12/29 03:53:27;;;;;;;127.57;41.88;;;;;;;;;;6246572;23;20024;-94
2023/12/29 03:55:53;;;;;;;194.65;51.92;;;;;;;;;;6221563;23;20428;-95
2023/12/29 03:58:19;;;;;;;92.15;40.72;;;;;;;;;;6220961;23;20083;-94
2023/12/29 04:00:46;;;;;;;151.73;49.25;;;;;;;;;;6221331;23;20017;-94
2023/12/29 04:03:12;;;;;;;88.18;40.42;;;;;;;;;;6221224;23;20027;-95
2023/12/29 04:05:38;;;;;;;138.10;48.53;;;;;;;;;;6220858;23;20054;-93
2023/12/29 04:08:04;;;;;;;143.70;48.75;;;;;;;;;;6221210;23;20000;-95
2023/12/29 04:10:30;;;;;;;87.50;39.42;;;;;;;;;;6220919;23;20434;-94
2023/12/29 04:12:57;;;;;;;178.63;51.42;;;;;;;;;;6221951;23;20055;-94
2023/12/29 04:15:23;;;;;;;193.13;52.10;;;;;;;;;;6222346;23;20090;-95
2023/12/29 04:17:49;;;;;;;121.20;46.63;;;;;;;;;;6245669;23;20007;-94
2023/12/29 04:20:15;;;;;;;211.20;56.13;;;;;;;;;;6220413;23;20107;-94
2023/12/29 04:22:41;;;;;;;107.45;39.05;;;;;;;;;;6220738;23;20441;-94
2023/12/29 04:25:08;;;;;;;155.00;49.38;;;;;;;;;;6220668;23;20008;-94
2023/12/29 04:27:35;;;;;;;192.93;51.75;;;;;;;;;;6221320;23;20056;-94
2023/12/29 04:30:04;;;;;;;169.93;53.97;;;;;;;;;;6222522;23;20007;-95
2023/12/29 04:32:30;;;;;;;173.05;50.50;;;;;;;;;;6224516;23;20004;-94
2023/12/29 04:34:57;;;;;;;151.25;47.30;;;;;;;;;;6236914;22;20047;-93
2023/12/29 04:37:23;;;;;;;194.52;54.15;;;;;;;;;;6276370;22;20019;-92
2023/12/29 04:39:49;;;;;;;112.75;43.83;;;;;;;;;;6238484;22;20016;-95
2023/12/29 04:42:17;;;;;;;122.03;45.58;;;;;;;;;;6278747;22;20026;-94
2023/12/29 04:44:44;;;;;;;120.20;47.90;;;;;;;;;;6279182;22;20004;-94
2023/12/29 04:47:10;;;;;;;129.77;42.45;;;;;;;;;;6279263;22;20008;-95
2023/12/29 04:49:36;;;;;;;225.50;56.60;;;;;;;;;;6279780;22;20008;-94
2023/12/29 04:52:02;;;;;;;174.30;51.95;;;;;;;;;;6278353;22;20405;-95
2023/12/29 04:54:29;;;;;;;123.90;42.45;;;;;;;;;;6278533;22;20007;-95
2023/12/29 04:56:55;;;;;;;246.23;60.72;;;;;;;;;;6278286;22;20004;-94
2023/12/29 04:59:21;;;;;;;232.07;61.00;;;;;;;;;;6277935;22;20524;-94
2023/12/29 05:01:47;;;;;;;266.63;66.03;;;;;;;;;;6277974;22;20008;-94
2023/12/29 05:04:14;;;;;;;243.85;63.47;;;;;;;;;;6278507;22;20003;-94
2023/12/29 05:06:41;;;;;;;385.98;74.15;;;;;;;;;;6278267;22;20090;-94
2023/12/29 05:09:07;;;;;;;284.27;65.28;;;;;;;;;;6278087;22;20000;-95
2023/12/29 05:11:33;;;;;;;215.82;59.35;;;;;;;;;;6278086;22;20034;-95
2023/12/29 05:13:59;;;;;;;173.45;53.80;;;;;;;;;;6278023;22;20008;-95
2023/12/29 05:16:25;;;;;;;215.48;56.72;;;;;;;;;;6278000;22;20311;-95
2023/12/29 05:18:51;;;;;;;203.48;56.40;;;;;;;;;;6278219;22;20446;-95
2023/12/29 05:21:18;;;;;;;199.05;57.63;;;;;;;;;;6277735;22;20012;-95
2023/12/29 05:23:46;;;;;;;224.27;59.42;;;;;;;;;;6277873;22;20004;-95
2023/12/29 05:26:12;;;;;;;220.02;58.60;;;;;;;;;;6277789;22;20022;-95
2023/12/29 05:28:38;;;;;;;239.63;63.08;;;;;;;;;;6277825;22;20000;-95
2023/12/29 05:31:05;;;;;;;145.35;49.05;;;;;;;;;;6277809;22;20420;-94
2023/12/29 05:33:31;;;;;;;241.10;59.38;;;;;;;;;;6278179;22;20099;-94
2023/12/29 05:35:57;;;;;;;262.25;62.55;;;;;;;;;;6277958;22;20015;-94
2023/12/29 05:38:23;;;;;;;227.32;59.50;;;;;;;;;;6277727;22;20078;-94
2023/12/29 05:40:50;;;;;;;247.38;61.53;;;;;;;;;;6277170;22;20020;-94
2023/12/29 05:43:16;;;;;;;301.30;66.18;;;;;;;;;;6252447;22;20019;-94
2023/12/29 05:45:43;;;;;;;224.07;59.80;;;;;;;;;;6252258;22;20007;-94
2023/12/29 05:48:09;;;;;;;229.05;58.35;;;;;;;;;;6251921;22;20086;-93
2023/12/29 05:50:35;;;;;;;219.27;58.08;;;;;;;;;;6251880;22;20204;-95
2023/12/29 05:53:02;;;;;;;173.90;54.22;;;;;;;;;;6252143;22;20004;-94
2023/12/29 05:55:28;;;;;;;116.75;44.40;;;;;;;;;;6251996;22;20319;-94
2023/12/29 05:57:57;;;;;;;146.48;48.00;;;;;;;;;;6252332;22;20000;-94
2023/12/29 06:00:23;;;;;;;153.40;49.15;;;;;;;;;;6251935;22;20015;-95
2023/12/29 06:02:49;;;;;;;131.73;47.20;;;;;;;;;;6252744;22;20386;-95
2023/12/29 06:05:16;;;;;;;146.30;49.80;;;;;;;;;;6252648;22;20452;-94
2023/12/29 06:07:42;;;;;;;362.17;73.30;;;;;;;;;;6227764;22;20336;-95
2023/12/29 06:10:09;;;;;;;248.68;62.25;;;;;;;;;;6252408;22;20008;-95
2023/12/29 06:12:35;;;;;;;251.20;60.35;;;;;;;;;;6252779;22;20003;-94
2023/12/29 06:15:02;;;;;;;407.92;72.63;;;;;;;;;;6276985;22;19999;-95
2023/12/29 06:17:28;;;;;;;348.85;74.05;;;;;;;;;;6252318;22;20011;-95
2023/12/29 06:19:55;;;;;;;219.38;59.75;;;;;;;;;;6252499;22;20003;-95
2023/12/29 06:22:21;;;;;;;169.35;53.88;;;;;;;;;;6251741;22;20007;-94
2023/12/29 06:24:47;;;;;;;240.25;61.83;;;;;;;;;;6251697;22;20027;-95
2023/12/29 06:27:13;;;;;;;374.25;69.88;;;;;;;;;;6251600;22;20008;-94
2023/12/29 06:29:42;;;;;;;418.77;73.68;;;;;;;;;;6251609;22;20437;-95
2023/12/29 06:32:08;;;;;;;385.00;74.70;;;;;;;;;;6251876;22;20000;-95
2023/12/29 06:34:34;;;;;;;306.75;68.30;;;;;;;;;;6251794;22;20008;-94
2023/12/29 06:37:01;;;;;;;210.25;60.63;;;;;;;;;;6251644;22;20006;-93
2023/12/29 06:39:27;;;;;;;307.05;64.28;;;;;;;;;;6251502;22;20486;-95
2023/12/29 06:41:53;;;;;;;136.57;50.03;;;;;;;;;;6251667;22;20008;-95
2023/12/29 06:44:19;;;;;;;97.45;41.95;;;;;;;;;;6251389;22;20079;-94
2023/12/29 06:46:46;;;;;;;108.18;40.67;;;;;;;;;;6252061;22;20505;-94
2023/12/29 06:49:12;;;;;;;104.53;40.58;;;;;;;;;;6251945;22;20094;-95
2023/12/29 06:51:40;;;;;;;84.72;37.80;;;;;;;;;;6251560;22;20003;-94
2023/12/29 06:54:07;;;;;;;89.30;37.13;;;;;;;;;;6251989;22;20049;-94
2023/12/29 06:56:33;;;;;;;86.28;37.28;;;;;;;;;;6251386;22;20333;-95
2023/12/29 06:58:59;;;;;;;85.82;37.20;;;;;;;;;;6253651;22;20026;-94
2023/12/29 07:01:25;;;;;;;105.38;41.42;;;;;;;;;;6252527;22;20015;-96
2023/12/29 07:03:53;;;;;;;105.80;38.65;;;;;;;;;;6252143;22;20306;-95
2023/12/29 07:06:22;;;;;;;87.70;40.78;;;;;;;;;;6253387;22;20011;-96
2023/12/29 07:08:48;;;;;;;87.82;38.92;;;;;;;;;;6252731;22;20133;-95
2023/12/29 07:11:15;;;;;;;89.93;42.97;;;;;;;;;;6254028;22;20004;-96
2023/12/29 07:13:41;;;;;;;186.55;54.08;;;;;;;;;;6253942;22;20013;-95
2023/12/29 07:16:10;;;;;;;89.05;39.80;;;;;;;;;;6252339;22;20010;-96
2023/12/29 07:18:37;;;;;;;83.97;39.15;;;;;;;;;;6251976;22;20023;-96
2023/12/29 07:21:04;;;;;;;98.65;39.97;;;;;;;;;;6253176;22;20016;-96
2023/12/29 07:23:30;;;;;;;85.75;38.35;;;;;;;;;;6245654;22;20000;-95
2023/12/29 07:25:56;;;;;;;71.20;33.75;;;;;;;;;;6251501;22;20085;-94
2023/12/29 07:28:22;;;;;;;67.50;34.83;;;;;;;;;;6251419;22;20003;-93
2023/12/29 07:30:49;;;;;;;68.72;33.97;;;;;;;;;;6251157;22;20012;-95
2023/12/29 07:33:15;;;;;;;147.30;49.45;;;;;;;;;;6251735;22;20087;-95
2023/12/29 07:35:41;;;;;;;74.00;36.75;;;;;;;;;;6251538;22;20074;-94
2023/12/29 07:38:07;;;;;;;98.75;38.90;;;;;;;;;;6251738;22;20008;-96
2023/12/29 07:40:33;;;;;;;80.65;35.58;;;;;;;;;;6246789;23;20020;-95
2023/12/29 07:43:00;;;;;;;116.45;44.05;;;;;;;;;;6221451;23;20115;-93
2023/12/29 07:45:26;;;;;;;73.15;36.92;;;;;;;;;;6221324;23;20487;-93
2023/12/29 07:50:57;;;;;;;78.88;34.35;;;;;;;;;;6249476;23;20380;-91
2023/12/29 07:53:26;;;;;;;86.70;45.97;;;;;;;;;;6234228;22;20019;-95
2023/12/29 07:55:53;;;;;;;74.22;37.00;;;;;;;;;;6248467;22;19992;-92
2023/12/29 07:58:19;;;;;;;64.40;33.83;;;;;;;;;;6235499;23;20012;-94
2023/12/29 08:00:48;;;;;;;139.38;40.10;;;;;;;;;;6221316;23;20016;-93
2023/12/29 08:03:18;;;;;;;104.68;43.88;;;;;;;;;;6221726;23;20011;-93
2023/12/29 08:05:47;;;;;;;102.43;39.65;;;;;;;;;;6226242;23;20011;-95
2023/12/29 08:08:14;;;;;;;90.72;38.25;;;;;;;;;;6227506;23;20015;-91
2023/12/29 08:10:40;;;;;;;118.93;45.20;;;;;;;;;;6224738;23;20108;-90
2023/12/29 08:13:09;;;;;;;88.13;38.10;;;;;;;;;;6226346;23;20064;-94
2023/12/29 08:15:50;;;;;;;72.72;33.80;;;;;;;;;;6226258;23;20008;-96
2023/12/29 08:18:16;;;;;;;69.47;33.67;;;;;;;;;;6226446;23;20008;-94
2023/12/29 08:20:42;;;;;;;78.07;35.80;;;;;;;;;;6225218;23;20019;-96
2023/12/29 08:23:09;;;;;;;87.05;36.28;;;;;;;;;;6224953;23;20007;-92
2023/12/29 08:25:38;;;;;;;63.50;31.80;;;;;;;;;;6224442;23;20008;-93
2023/12/29 08:28:05;;;;;;;59.65;29.02;;;;;;;;;;6224209;23;20059;-94
2023/12/29 08:30:31;;;;;;;98.13;33.45;;;;;;;;;;6224551;23;20429;-93
2023/12/29 08:32:57;;;;;;;60.90;32.13;;;;;;;;;;6224264;23;20031;-93
2023/12/29 08:35:24;;;;;;;57.75;31.02;;;;;;;;;;6225675;23;20008;-93
2023/12/29 08:37:50;;;;;;;85.93;31.90;;;;;;;;;;6223997;23;20345;-95
2023/12/29 08:40:16;;;;;;;159.13;42.00;;;;;;;;;;6235131;22;20069;-92
2023/12/29 08:42:42;;;;;;;62.65;32.00;;;;;;;;;;6247831;22;20014;-95
2023/12/29 08:45:11;;;;;;;61.13;31.10;;;;;;;;;;6280321;22;19999;-96
2023/12/29 08:47:37;;;;;;;68.93;35.47;;;;;;;;;;6284042;22;20007;-95
2023/12/29 08:50:04;;;;;;;68.18;32.40;;;;;;;;;;6279995;22;20034;-95
2023/12/29 08:52:34;;;;;;;124.80;43.47;;;;;;;;;;6279516;22;20008;-92
2023/12/29 08:55:00;;;;;;;61.40;31.92;;;;;;;;;;6279469;22;20010;-92
2023/12/29 08:57:34;;;;;;;188.32;48.17;;;;;;;;;;6280898;22;20074;-96
2023/12/29 09:00:00;;;;;;;73.13;36.35;;;;;;;;;;6278426;22;20015;-93
2023/12/29 09:02:26;;;;;;;88.88;38.45;;;;;;;;;;6280162;22;20003;-94
2023/12/29 09:04:53;;;;;;;118.75;43.40;;;;;;;;;;6281648;22;20094;-96
2023/12/29 09:07:19;;;;;;;146.82;43.97;;;;;;;;;;6280358;22;20003;-96
2023/12/29 09:09:45;;;;;;;191.23;48.90;;;;;;;;;;6281388;22;20087;-95
2023/12/29 09:12:11;;;;;;;77.93;37.45;;;;;;;;;;6279794;22;20452;-95
2023/12/29 09:14:37;;;;;;;116.07;39.25;;;;;;;;;;6278941;22;20329;-94
2023/12/29 09:17:05;;;;;;;59.83;32.20;;;;;;;;;;6278577;22;20003;-96
2023/12/29 09:19:31;;;;;;;59.92;31.33;;;;;;;;;;6279020;22;20012;-93
2023/12/29 09:21:57;;;;;;;76.97;36.25;;;;;;;;;;6278823;22;20007;-96
2023/12/29 09:24:26;;;;;;;112.55;40.33;;;;;;;;;;6279086;22;20378;-96
2023/12/29 09:26:52;;;;;;;97.15;38.75;;;;;;;;;;6281657;22;20011;-96
2023/12/29 09:29:18;;;;;;;76.63;38.45;;;;;;;;;;6257334;22;20000;-96
2023/12/29 09:31:45;;;;;;;79.50;38.80;;;;;;;;;;6284489;22;20018;-96
2023/12/29 09:34:11;;;;;;;82.93;39.83;;;;;;;;;;6291408;22;20016;-95
2023/12/29 09:36:38;;;;;;;58.90;32.20;;;;;;;;;;6305621;22;20097;-96
2023/12/29 09:39:04;;;;;;;61.55;30.63;;;;;;;;;;6291178;22;20020;-96
2023/12/29 09:41:32;;;;;;;67.78;35.65;;;;;;;;;;6278257;22;20500;-94
2023/12/29 09:43:58;;;;;;;61.85;31.42;;;;;;;;;;6253126;22;20010;-94
2023/12/29 09:46:28;;;;;;;67.82;33.33;;;;;;;;;;6255095;22;20065;-96
2023/12/29 09:48:57;;;;;;;53.90;30.48;;;;;;;;;;6254343;22;20032;-95
2023/12/29 09:51:24;;;;;;;59.28;29.75;;;;;;;;;;6253582;22;20008;-95
2023/12/29 09:53:54;;;;;;;48.95;27.75;;;;;;;;;;6254012;22;20004;-96
2023/12/29 09:56:20;;;;;;;47.92;26.88;;;;;;;;;;6255934;22;20010;-93
2023/12/29 09:58:51;;;;;;;51.28;29.10;;;;;;;;;;6256082;22;19996;-94
2023/12/29 10:01:24;;;;;;;47.83;27.73;;;;;;;;;;6253565;22;20011;-96
2023/12/29 10:03:50;;;;;;;59.42;30.83;;;;;;;;;;6252864;22;20003;-95
2023/12/29 10:06:26;;;;;;;57.38;31.00;;;;;;;;;;6253666;22;20014;-96
2023/12/29 10:08:54;;;;;;;56.70;30.00;;;;;;;;;;6252742;22;20490;-96
2023/12/29 10:11:24;;;;;;;55.55;29.60;;;;;;;;;;6254540;22;20004;-95
2023/12/29 10:13:53;;;;;;;52.97;28.10;;;;;;;;;;6228363;22;20037;-95
2023/12/29 10:16:19;;;;;;;57.97;29.30;;;;;;;;;;6253487;22;20013;-94
2023/12/29 10:18:48;;;;;;;60.60;29.58;;;;;;;;;;6253675;22;19999;-96
2023/12/29 10:21:21;;;;;;;60.97;32.22;;;;;;;;;;6253462;22;20322;-94
2023/12/29 10:24:05;;;;;;;59.63;30.33;;;;;;;;;;6255904;22;20004;-96
2023/12/29 10:26:55;;;;;;;53.00;29.42;;;;;;;;;;6254045;22;20003;-96
2023/12/29 10:29:21;;;;;;;55.67;30.48;;;;;;;;;;6252303;22;20003;-95
2023/12/29 10:31:53;;;;;;;51.08;27.85;;;;;;;;;;6279932;22;20000;-94
2023/12/29 10:37:23;;;;;;;52.92;29.95;;;;;;;;;;6281976;22;20061;-95
2023/12/29 10:39:56;;;;;;;56.25;28.98;;;;;;;;;;6253088;22;20329;-93
2023/12/29 10:42:26;;;;;;;47.25;27.42;;;;;;;;;;6252976;22;20067;-93
2023/12/29 10:45:12;;;;;;;51.60;29.33;;;;;;;;;;6253659;22;20003;-92
2023/12/29 10:47:44;;;;;;;53.55;28.60;;;;;;;;;;6251831;22;20003;-93
2023/12/29 10:50:10;;;;;;;59.85;33.38;;;;;;;;;;6252063;22;20046;-92
2023/12/29 10:52:37;;;;;;;51.15;29.45;;;;;;;;;;6252061;22;20337;-92
2023/12/29 10:55:10;;;;;;;53.53;28.42;;;;;;;;;;6251864;22;20004;-94
2023/12/29 10:57:40;;;;;;;53.95;29.42;;;;;;;;;;6251699;22;20019;-91
2023/12/29 11:00:12;;;;;;;52.60;29.73;;;;;;;;;;6251756;22;20012;-91
2023/12/29 11:02:39;;;;;;;57.63;30.58;;;;;;;;;;6251496;22;20065;-94
2023/12/29 11:05:19;;;;;;;;;;;;;;;;;;;;;
2023/12/29 11:07:46;;;;;;;53.55;29.73;;;;;;;;;;6280547;22;20380;-95
2023/12/29 11:10:15;;;;;;;57.58;32.58;;;;;;;;;;6253071;22;20003;-90
2023/12/29 11:13:08;;;;;;;55.00;30.35;;;;;;;;;;6252161;22;20314;-95
2023/12/29 11:15:37;;;;;;;61.55;31.95;;;;;;;;;;6260315;22;19991;-94
2023/12/29 11:18:04;;;;;;;61.42;32.65;;;;;;;;;;6279003;22;20039;-91
2023/12/29 11:20:34;;;;;;;56.03;30.70;;;;;;;;;;6267503;22;20520;-93
2023/12/29 11:23:04;;;;;;;58.53;31.80;;;;;;;;;;6216478;23;20012;-92
2023/12/29 11:25:30;;;;;;;56.70;30.98;;;;;;;;;;6215608;23;20012;-94
2023/12/29 11:27:57;;;;;;;54.28;30.42;;;;;;;;;;6215680;23;20047;-93
2023/12/29 11:30:26;;;;;;;58.63;33.67;;;;;;;;;;6216228;23;20337;-94
2023/12/29 11:33:06;;;;;;;55.95;29.85;;;;;;;;;;6215516;23;20009;-92
2023/12/29 11:35:46;;;;;;;51.88;29.00;;;;;;;;;;6215994;23;20023;-95
2023/12/29 11:38:24;;;;;;;47.90;26.40;;;;;;;;;;6215553;23;20486;-91
2023/12/29 11:40:56;;;;;;;48.78;28.08;;;;;;;;;;6217457;23;20442;-95
2023/12/29 11:43:27;;;;;;;49.65;26.95;;;;;;;;;;6215686;23;20308;-94
2023/12/29 11:45:53;;;;;;;52.30;29.67;;;;;;;;;;6215670;23;20279;-94
2023/12/29 11:48:41;;;;;;;63.55;32.55;;;;;;;;;;6215648;23;20032;-94
2023/12/29 11:51:33;;;;;;;59.13;32.47;;;;;;;;;;6215694;23;20007;-92
2023/12/29 11:54:00;;;;;;;49.22;28.13;;;;;;;;;;6210946;23;20062;-94
2023/12/29 11:56:42;;;;;;;44.80;26.75;;;;;;;;;;6215431;23;20001;-95
2023/12/29 11:59:14;;;;;;;47.72;27.55;;;;;;;;;;6215022;23;20436;-94
2023/12/29 12:01:41;;;;;;;44.37;26.73;;;;;;;;;;6215149;23;20012;-95
2023/12/29 12:04:25;;;;;;;49.15;27.88;;;;;;;;;;6215385;23;20087;-95
2023/12/29 12:06:58;;;;;;;47.63;26.80;;;;;;;;;;6215088;23;20027;-96
2023/12/29 12:09:27;;;;;;;160.05;80.10;;;;;;;;;;6215259;23;20009;-94
2023/12/29 12:11:53;;;;;;;52.47;30.92;;;;;;;;;;6215012;23;20020;-95
2023/12/29 12:14:38;;;;;;;50.17;29.58;;;;;;;;;;6216682;23;20000;-95
2023/12/29 12:17:05;;;;;;;62.90;35.33;;;;;;;;;;6216787;23;20451;-93
2023/12/29 12:19:36;;;;;;;46.55;27.08;;;;;;;;;;6215128;23;20004;-94
2023/12/29 12:22:03;;;;;;;49.00;27.58;;;;;;;;;;6215320;23;20027;-94
2023/12/29 12:24:37;;;;;;;60.33;37.65;;;;;;;;;;6215258;23;20009;-95
2023/12/29 12:27:09;;;;;;;44.90;26.65;;;;;;;;;;6215917;23;20235;-94
2023/12/29 12:29:36;;;;;;;54.13;28.93;;;;;;;;;;6215330;23;20402;-93
2023/12/29 12:32:03;;;;;;;50.70;28.15;;;;;;;;;;6215178;23;20036;-91
2023/12/29 12:34:39;;;;;;;46.65;27.27;;;;;;;;;;6215466;23;20451;-90
2023/12/29 12:37:07;;;;;;;51.92;29.70;;;;;;;;;;6216245;23;20478;-94
2023/12/29 12:40:08;;;;;;;49.45;29.08;;;;;;;;;;6215610;23;20009;-96
2023/12/29 12:42:39;;;;;;;48.90;28.27;;;;;;;;;;6179475;23;20008;-93
2023/12/29 12:45:19;;;;;;;43.65;26.65;;;;;;;;;;6214703;23;20038;-91
2023/12/29 12:47:50;;;;;;;50.33;29.83;;;;;;;;;;6215542;23;20005;-96
2023/12/29 12:50:17;;;;;;;44.17;26.63;;;;;;;;;;6216555;23;20311;-96
2023/12/29 12:52:43;;;;;;;45.17;27.45;;;;;;;;;;6218919;23;20055;-96
2023/12/29 12:55:10;;;;;;;48.38;27.48;;;;;;;;;;6218033;23;20008;-96
2023/12/29 12:57:37;;;;;;;50.45;29.45;;;;;;;;;;6218829;23;20098;-96
2023/12/29 13:00:05;;;;;;;45.42;27.50;;;;;;;;;;6237461;22;20016;-93
2023/12/29 13:02:32;;;;;;;44.40;27.45;;;;;;;;;;6242938;22;19992;-94
2023/12/29 13:05:07;;;;;;;45.78;27.73;;;;;;;;;;6240482;22;19989;-92
2023/12/29 13:07:36;;;;;;;54.00;30.83;;;;;;;;;;6218033;23;20012;-92
2023/12/29 13:10:03;;;;;;;48.92;28.65;;;;;;;;;;6217916;23;20067;-96
2023/12/29 13:12:30;;;;;;;47.25;27.63;;;;;;;;;;6217052;23;20039;-95
2023/12/29 13:15:11;;;;;;;53.13;31.60;;;;;;;;;;6217436;23;20444;-96
2023/12/29 13:17:38;;;;;;;53.53;31.38;;;;;;;;;;6217043;23;20008;-96
2023/12/29 13:20:04;;;;;;;47.35;27.48;;;;;;;;;;6216618;23;20043;-93
2023/12/29 13:22:32;;;;;;;51.28;28.65;;;;;;;;;;6216578;23;20020;-93
2023/12/29 13:25:01;;;;;;;53.55;29.55;;;;;;;;;;6216547;23;20011;-92
2023/12/29 13:27:33;;;;;;;52.88;30.10;;;;;;;;;;6216549;23;20001;-93
2023/12/29 13:29:59;;;;;;;54.70;31.77;;;;;;;;;;6216948;23;20011;-94
2023/12/29 13:32:30;;;;;;;53.55;30.25;;;;;;;;;;6216833;23;20036;-94
2023/12/29 13:35:09;;;;;;;55.33;31.30;;;;;;;;;;6216591;23;20008;-94
2023/12/29 13:37:50;;;;;;;55.38;30.52;;;;;;;;;;6216391;23;20016;-93
2023/12/29 13:40:24;;;;;;;49.00;29.17;;;;;;;;;;6216440;23;20016;-95
2023/12/29 13:42:54;;;;;;;48.08;28.33;;;;;;;;;;6217230;23;20004;-94
2023/12/29 13:45:21;;;;;;;54.47;30.25;;;;;;;;;;6216308;23;20036;-93
2023/12/29 13:47:47;;;;;;;55.40;29.98;;;;;;;;;;6216672;23;20430;-94
2023/12/29 13:50:13;;;;;;;57.90;31.25;;;;;;;;;;6216614;23;20012;-95
2023/12/29 13:52:41;;;;;;;65.32;34.75;;;;;;;;;;6216416;23;20027;-96
2023/12/29 13:55:07;;;;;;;54.90;30.83;;;;;;;;;;6216930;23;20717;-95
2023/12/29 13:57:34;;;;;;;64.15;33.33;;;;;;;;;;6216444;23;20035;-95
2023/12/29 14:00:20;;;;;;;60.13;32.78;;;;;;;;;;6216158;23;20012;-92
2023/12/29 14:02:51;;;;;;;62.15;32.88;;;;;;;;;;6216526;23;20008;-95
2023/12/29 14:05:24;;;;;;;60.90;31.98;;;;;;;;;;6216659;23;20005;-95
2023/12/29 14:07:56;;;;;;;56.63;31.27;;;;;;;;;;6217147;23;20000;-96
2023/12/29 14:10:22;;;;;;;62.80;33.33;;;;;;;;;;6216400;23;20007;-95
2023/12/29 14:12:48;;;;;;;70.80;36.92;;;;;;;;;;6217782;23;20078;-96
2023/12/29 14:15:14;;;;;;;72.25;37.95;;;;;;;;;;6219334;23;20009;-95
2023/12/29 14:17:40;;;;;;;74.00;38.17;;;;;;;;;;6217130;23;20009;-96
2023/12/29 14:20:07;;;;;;;68.95;36.75;;;;;;;;;;6217690;23;20438;-92
2023/12/29 14:22:36;;;;;;;69.85;37.03;;;;;;;;;;6215945;23;20048;-95
2023/12/29 14:25:04;;;;;;;72.80;38.45;;;;;;;;;;6217130;23;20009;-95
2023/12/29 14:27:30;;;;;;;53.88;32.28;;;;;;;;;;6216560;23;20054;-95